createdAt,value
2023-05-10T00:01:30.902Z,25.56
2023-05-10T00:03:32.540Z,25.57
2023-05-10T00:05:34.121Z,25.58
2023-05-10T00:07:35.827Z,25.58
2023-05-10T00:09:37.445Z,25.59
2023-05-10T00:11:39.032Z,25.59
2023-05-10T00:13:41.281Z,25.57
2023-05-10T00:15:42.833Z,25.57
2023-05-10T00:17:44.704Z,25.58
2023-05-10T00:19:46.389Z,25.57
2023-05-10T00:21:48.252Z,25.59
2023-05-10T00:23:49.976Z,25.58
2023-05-10T00:25:51.533Z,25.56
2023-05-10T00:27:53.128Z,25.56
2023-05-10T00:29:54.776Z,25.54
2023-05-10T00:31:57.168Z,25.55
2023-05-10T00:33:58.784Z,25.55
2023-05-10T00:36:00.411Z,25.52
2023-05-10T00:38:01.990Z,25.50
2023-05-10T00:40:03.845Z,25.51
2023-05-10T00:42:05.549Z,25.51
2023-05-10T00:44:07.387Z,25.50
2023-05-10T00:46:09.036Z,25.49
2023-05-10T00:48:10.630Z,25.50
2023-05-10T00:50:12.176Z,25.51
2023-05-10T00:52:14.124Z,25.49
2023-05-10T00:54:16.289Z,25.49
2023-05-10T00:56:18.197Z,25.49
2023-05-10T00:58:19.734Z,25.49
2023-05-10T01:00:21.597Z,25.49
2023-05-10T01:02:23.256Z,25.48
2023-05-10T01:04:26.510Z,25.48
2023-05-10T01:06:28.680Z,25.47
2023-05-10T01:08:30.361Z,25.48
2023-05-10T01:10:32.181Z,25.47
2023-05-10T01:12:36.719Z,25.48
2023-05-10T01:14:38.596Z,25.49
2023-05-10T01:16:41.792Z,25.51
2023-05-10T01:18:44.156Z,25.49
2023-05-10T01:20:48.056Z,25.51
2023-05-10T01:23:03.310Z,25.52
2023-05-10T01:25:16.850Z,25.51
2023-05-10T01:28:01.953Z,25.51
2023-05-10T01:30:36.587Z,25.49
2023-05-10T01:32:41.324Z,25.49
2023-05-10T01:35:02.036Z,25.50
2023-05-10T01:37:16.838Z,25.50
2023-05-10T01:39:23.817Z,25.51
2023-05-10T01:41:30.847Z,25.52
2023-05-10T01:43:58.089Z,25.53
2023-05-10T01:46:11.982Z,25.53
2023-05-10T01:48:15.639Z,25.53
2023-05-10T01:50:24.087Z,25.53
2023-05-10T01:52:38.876Z,25.53
2023-05-10T01:54:44.229Z,25.53
2023-05-10T01:56:48.312Z,25.48
2023-05-10T01:58:50.863Z,25.53
2023-05-10T02:00:53.514Z,25.53
2023-05-10T02:02:56.029Z,25.54
2023-05-10T02:04:58.172Z,25.55
2023-05-10T02:06:59.999Z,25.52
2023-05-10T02:09:02.939Z,25.55
2023-05-10T02:11:06.315Z,25.57
2023-05-10T02:13:08.768Z,25.56
2023-05-10T02:15:13.013Z,25.55
2023-05-10T02:17:15.381Z,25.54
2023-05-10T02:19:18.082Z,25.54
2023-05-10T02:21:21.638Z,25.54
2023-05-10T02:23:24.624Z,25.54
2023-05-10T02:25:26.737Z,25.53
2023-05-10T02:27:28.720Z,25.54
2023-05-10T02:29:31.201Z,25.54
2023-05-10T02:31:34.024Z,25.55
2023-05-10T02:33:36.439Z,25.55
2023-05-10T02:35:39.276Z,25.57
2023-05-10T02:37:41.021Z,25.57
2023-05-10T02:39:44.994Z,25.58
2023-05-10T02:41:47.929Z,25.57
2023-05-10T02:43:53.511Z,25.57
2023-05-10T02:45:55.211Z,25.58
2023-05-10T02:47:57.775Z,25.57
2023-05-10T02:49:59.466Z,25.56
2023-05-10T02:52:03.394Z,25.56
2023-05-10T02:54:10.736Z,25.57
2023-05-10T02:56:30.093Z,25.58
2023-05-10T02:58:31.696Z,25.57
2023-05-10T03:00:33.506Z,25.58
2023-05-10T03:02:35.145Z,25.59
2023-05-10T03:04:36.974Z,25.58
2023-05-10T03:06:39.070Z,25.60
2023-05-10T03:08:40.865Z,25.60
2023-05-10T03:10:51.447Z,25.59
2023-05-10T03:13:16.497Z,25.59
2023-05-10T03:15:46.022Z,25.59
2023-05-10T03:17:57.109Z,25.57
2023-05-10T03:20:08.674Z,25.60
2023-05-10T03:22:12.059Z,25.59
2023-05-10T03:24:16.615Z,25.60
2023-05-10T03:26:29.255Z,25.60
2023-05-10T03:28:31.041Z,25.61
2023-05-10T03:30:33.230Z,25.62
2023-05-10T03:32:35.782Z,25.62
2023-05-10T03:34:42.662Z,25.61
2023-05-10T03:36:44.225Z,25.61
2023-05-10T03:38:45.885Z,25.62
2023-05-10T03:40:47.374Z,25.62
2023-05-10T03:42:48.955Z,25.61
2023-05-10T03:44:50.906Z,25.62
2023-05-10T03:46:52.599Z,25.62
2023-05-10T03:48:54.458Z,25.64
2023-05-10T03:50:56.063Z,25.64
2023-05-10T03:52:58.582Z,25.64
2023-05-10T03:55:00.269Z,25.64
2023-05-10T03:57:01.986Z,25.64
2023-05-10T03:59:08.170Z,25.64
2023-05-10T04:01:09.805Z,25.65
2023-05-10T04:03:12.349Z,25.64
2023-05-10T04:05:13.946Z,25.63
2023-05-10T04:07:15.592Z,25.64
2023-05-10T04:09:18.021Z,25.62
2023-05-10T04:11:19.593Z,25.63
2023-05-10T04:13:21.683Z,25.65
2023-05-10T04:15:23.490Z,25.66
2023-05-10T04:17:25.104Z,25.66
2023-05-10T04:19:32.690Z,25.66
2023-05-10T04:21:34.322Z,25.67
2023-05-10T04:23:35.861Z,25.67
2023-05-10T04:25:37.576Z,25.66
2023-05-10T04:27:39.200Z,25.67
2023-05-10T04:29:40.804Z,25.67
2023-05-10T04:31:42.455Z,25.65
2023-05-10T04:33:44.117Z,25.65
2023-05-10T04:35:46.200Z,25.65
2023-05-10T04:37:47.734Z,25.66
2023-05-10T04:39:49.396Z,25.67
2023-05-10T04:41:51.052Z,25.68
2023-05-10T04:43:52.724Z,25.68
2023-05-10T04:45:57.436Z,25.69
2023-05-10T04:47:59.242Z,25.70
2023-05-10T04:50:00.981Z,25.69
2023-05-10T04:52:02.678Z,25.67
2023-05-10T04:54:06.415Z,25.69
2023-05-10T04:56:08.508Z,25.68
2023-05-10T04:58:10.205Z,25.67
2023-05-10T05:00:12.668Z,25.67
2023-05-10T05:02:14.314Z,25.67
2023-05-10T05:04:16.063Z,25.69
2023-05-10T05:06:17.652Z,25.68
2023-05-10T05:08:19.185Z,25.69
2023-05-10T05:10:20.760Z,25.71
2023-05-10T05:12:22.333Z,25.72
2023-05-10T05:14:26.036Z,25.72
2023-05-10T05:16:27.923Z,25.72
2023-05-10T05:18:29.773Z,25.70
2023-05-10T05:20:33.870Z,25.69
2023-05-10T05:22:37.246Z,25.70
2023-05-10T05:24:39.146Z,25.70
2023-05-10T05:26:40.800Z,25.70
2023-05-10T05:28:42.442Z,25.70
2023-05-10T05:30:44.109Z,25.71
2023-05-10T05:32:45.734Z,25.72
2023-05-10T05:34:47.632Z,25.73
2023-05-10T05:36:49.473Z,25.73
2023-05-10T05:38:51.336Z,25.73
2023-05-10T05:40:52.935Z,25.73
2023-05-10T05:42:54.536Z,25.70
2023-05-10T05:44:56.114Z,25.73
2023-05-10T05:46:57.981Z,25.73
2023-05-10T05:48:59.763Z,25.72
2023-05-10T05:51:01.407Z,25.72
2023-05-10T05:53:03.235Z,25.73
2023-05-10T05:55:05.363Z,25.74
2023-05-10T05:57:07.151Z,25.74
2023-05-10T05:59:08.892Z,25.74
2023-05-10T06:01:10.501Z,25.75
2023-05-10T06:03:12.233Z,25.76
2023-05-10T06:05:15.165Z,25.77
2023-05-10T06:07:17.517Z,25.78
2023-05-10T06:09:19.140Z,25.78
2023-05-10T06:11:22.049Z,25.77
2023-05-10T06:13:23.828Z,25.76
2023-05-10T06:15:25.646Z,25.76
2023-05-10T06:17:27.540Z,25.76
2023-05-10T06:19:29.221Z,25.76
2023-05-10T06:21:31.268Z,25.76
2023-05-10T06:23:33.060Z,25.77
2023-05-10T06:25:34.659Z,25.77
2023-05-10T06:27:38.485Z,25.78
2023-05-10T06:29:40.187Z,25.79
2023-05-10T06:31:41.967Z,25.79
2023-05-10T06:33:43.615Z,25.78
2023-05-10T06:35:45.169Z,25.78
2023-05-10T06:37:47.723Z,25.77
2023-05-10T06:39:49.563Z,25.78
2023-05-10T06:41:51.277Z,25.77
2023-05-10T06:43:53.149Z,25.78
2023-05-10T06:45:54.813Z,25.79
2023-05-10T06:47:56.548Z,25.77
2023-05-10T06:49:58.245Z,25.78
2023-05-10T06:51:59.996Z,25.79
2023-05-10T06:54:02.233Z,25.80
2023-05-10T06:56:04.443Z,25.80
2023-05-10T06:58:07.202Z,25.81
2023-05-10T07:00:10.533Z,25.81
2023-05-10T07:02:12.291Z,25.80
2023-05-10T07:04:14.687Z,25.80
2023-05-10T07:06:29.450Z,25.79
2023-05-10T07:08:35.289Z,25.78
2023-05-10T07:10:36.941Z,25.79
2023-05-10T07:12:39.148Z,25.81
2023-05-10T07:14:40.929Z,25.80
2023-05-10T07:16:42.536Z,25.80
2023-05-10T07:18:44.159Z,25.82
2023-05-10T07:20:45.767Z,25.82
2023-05-10T07:22:47.446Z,25.80
2023-05-10T07:24:49.131Z,25.82
2023-05-10T07:26:50.949Z,25.82
2023-05-10T07:28:52.502Z,25.81
2023-05-10T07:30:54.054Z,25.81
2023-05-10T07:32:55.893Z,25.81
2023-05-10T07:34:57.741Z,25.81
2023-05-10T07:37:00.293Z,25.80
2023-05-10T07:39:02.139Z,25.81
2023-05-10T07:41:03.776Z,25.82
2023-05-10T07:43:05.351Z,25.82
2023-05-10T07:45:07.560Z,25.83
2023-05-10T07:47:09.424Z,25.83
2023-05-10T07:49:11.095Z,25.85
2023-05-10T07:51:13.052Z,25.82
2023-05-10T07:53:14.744Z,25.82
2023-05-10T07:55:16.831Z,25.83
2023-05-10T07:57:19.104Z,25.82
2023-05-10T07:59:21.094Z,25.83
2023-05-10T08:01:23.232Z,25.82
2023-05-10T08:03:24.917Z,25.81
2023-05-10T08:05:26.598Z,25.82
2023-05-10T08:07:28.450Z,25.85
2023-05-10T08:09:29.997Z,25.85
2023-05-10T08:11:32.802Z,25.85
2023-05-10T08:13:35.299Z,25.97
2023-05-10T08:15:36.926Z,26.09
2023-05-10T08:17:38.847Z,26.22
2023-05-10T08:19:40.508Z,26.33
2023-05-10T08:21:43.380Z,26.46
2023-05-10T08:23:45.262Z,26.60
2023-05-10T08:25:46.987Z,26.72
2023-05-10T08:27:48.607Z,26.82
2023-05-10T08:29:50.717Z,26.92
2023-05-10T08:31:52.456Z,27.01
2023-05-10T08:33:54.216Z,27.06
2023-05-10T08:35:55.825Z,27.14
2023-05-10T08:37:57.350Z,27.17
2023-05-10T08:39:58.986Z,27.20
2023-05-10T08:42:02.644Z,27.27
2023-05-10T08:44:05.426Z,27.30
2023-05-10T08:46:08.866Z,27.33
2023-05-10T08:48:11.557Z,27.36
2023-05-10T08:50:13.757Z,27.37
2023-05-10T08:52:16.128Z,27.36
2023-05-10T08:54:17.818Z,27.26
2023-05-10T08:56:20.696Z,27.16
2023-05-10T08:58:22.604Z,27.07
2023-05-10T09:00:24.682Z,26.97
2023-05-10T09:02:26.702Z,26.90
2023-05-10T09:04:29.216Z,26.82
2023-05-10T09:06:31.034Z,26.72
2023-05-10T09:08:32.702Z,26.66
2023-05-10T09:10:34.246Z,26.59
2023-05-10T09:12:36.433Z,26.51
2023-05-10T09:14:38.898Z,26.47
2023-05-10T09:16:41.258Z,26.41
2023-05-10T09:18:43.023Z,26.40
2023-05-10T09:20:44.628Z,26.36
2023-05-10T09:22:46.290Z,26.33
2023-05-10T09:24:47.986Z,26.32
2023-05-10T09:26:50.197Z,26.30
2023-05-10T09:28:53.572Z,26.28
2023-05-10T09:30:56.570Z,26.26
2023-05-10T09:32:59.608Z,26.24
2023-05-10T09:35:13.328Z,26.21
2023-05-10T09:37:15.190Z,26.20
2023-05-10T09:39:17.088Z,26.16
2023-05-10T09:41:20.232Z,26.17
2023-05-10T09:43:21.759Z,26.22
2023-05-10T09:45:34.602Z,26.35
2023-05-10T09:47:37.459Z,26.48
2023-05-10T09:49:39.001Z,26.62
2023-05-10T09:51:40.929Z,26.75
2023-05-10T09:53:42.606Z,26.86
2023-05-10T09:55:46.813Z,26.98
2023-05-10T09:57:49.479Z,27.01
2023-05-10T09:59:51.653Z,26.96
2023-05-10T10:01:54.601Z,26.89
2023-05-10T10:03:58.683Z,26.83
2023-05-10T10:06:00.345Z,26.75
2023-05-10T10:08:04.113Z,26.68
2023-05-10T10:10:06.492Z,26.63
2023-05-10T10:12:08.142Z,26.58
2023-05-10T10:14:10.044Z,26.52
2023-05-10T10:16:11.750Z,26.49
2023-05-10T10:18:16.689Z,26.44
2023-05-10T10:20:20.144Z,26.41
2023-05-10T10:22:22.062Z,26.38
2023-05-10T10:24:23.623Z,26.37
2023-05-10T10:26:26.066Z,26.46
2023-05-10T10:28:53.427Z,26.59
2023-05-10T10:30:57.040Z,26.71
2023-05-10T10:33:27.352Z,26.85
2023-05-10T10:35:32.816Z,26.92
2023-05-10T10:37:54.656Z,26.89
2023-05-10T10:39:56.557Z,26.86
2023-05-10T10:41:58.884Z,26.84
2023-05-10T10:44:34.861Z,26.81
2023-05-10T10:47:03.534Z,26.73
2023-05-10T10:49:11.623Z,26.61
2023-05-10T10:51:14.265Z,26.59
2023-05-10T10:53:15.956Z,26.58
2023-05-10T10:55:25.927Z,26.54
2023-05-10T10:57:28.286Z,26.51
2023-05-10T10:59:29.905Z,26.47
2023-05-10T11:01:37.685Z,26.39
2023-05-10T11:03:39.403Z,26.44
2023-05-10T11:05:50.678Z,26.58
2023-05-10T11:07:59.388Z,26.72
2023-05-10T11:10:05.930Z,26.87
2023-05-10T11:12:09.630Z,26.98
2023-05-10T11:14:11.374Z,27.06
2023-05-10T11:16:27.965Z,27.02
2023-05-10T11:18:31.479Z,26.97
2023-05-10T11:20:39.957Z,26.91
2023-05-10T11:22:54.168Z,26.83
2023-05-10T11:25:01.950Z,26.74
2023-05-10T11:27:03.733Z,26.70
2023-05-10T11:29:06.013Z,26.66
2023-05-10T11:31:08.053Z,26.62
2023-05-10T11:33:10.453Z,26.59
2023-05-10T11:35:12.928Z,26.58
2023-05-10T11:37:14.664Z,26.55
2023-05-10T11:39:16.185Z,26.52
2023-05-10T11:41:19.656Z,26.49
2023-05-10T11:43:24.734Z,26.46
2023-05-10T11:45:26.992Z,26.44
2023-05-10T11:47:28.760Z,26.42
2023-05-10T11:49:30.457Z,26.41
2023-05-10T11:51:35.340Z,26.39
2023-05-10T11:53:37.080Z,26.39
2023-05-10T11:55:38.927Z,26.38
2023-05-10T11:57:42.705Z,26.38
2023-05-10T11:59:44.282Z,26.39
2023-05-10T12:01:46.079Z,26.24
2023-05-10T12:03:48.041Z,26.05
2023-05-10T12:05:49.875Z,25.89
2023-05-10T12:07:51.526Z,25.74
2023-05-10T12:10:09.287Z,25.59
2023-05-10T12:12:11.510Z,25.48
2023-05-10T12:14:13.217Z,25.42
2023-05-10T12:16:20.809Z,25.47
2023-05-10T12:18:25.791Z,25.54
2023-05-10T12:20:28.958Z,25.67
2023-05-10T12:22:30.573Z,25.78
2023-05-10T12:24:34.329Z,25.90
2023-05-10T12:26:37.416Z,25.96
2023-05-10T12:28:40.066Z,26.00
2023-05-10T12:30:41.592Z,25.99
2023-05-10T12:32:44.980Z,26.07
2023-05-10T12:34:47.640Z,26.10
2023-05-10T12:36:52.702Z,26.18
2023-05-10T12:39:03.382Z,26.15
2023-05-10T12:41:06.924Z,26.14
2023-05-10T12:43:08.536Z,26.13
2023-05-10T12:45:10.610Z,26.04
2023-05-10T12:47:12.240Z,26.10
2023-05-10T12:49:13.777Z,26.13
2023-05-10T12:51:18.098Z,26.12
2023-05-10T12:53:19.925Z,26.21
2023-05-10T12:55:21.769Z,26.18
2023-05-10T12:57:23.466Z,26.16
2023-05-10T12:59:25.023Z,26.06
2023-05-10T13:01:26.709Z,25.95
2023-05-10T13:03:28.382Z,25.77
2023-05-10T13:05:29.892Z,25.62
2023-05-10T13:07:31.497Z,25.51
2023-05-10T13:09:33.256Z,25.32
2023-05-10T13:11:34.908Z,25.25
2023-05-10T13:13:36.454Z,25.14
2023-05-10T13:15:38.197Z,25.04
2023-05-10T13:17:41.691Z,24.95
2023-05-10T13:19:43.410Z,24.88
2023-05-10T13:21:47.730Z,24.84
2023-05-10T13:23:49.442Z,24.78
2023-05-10T13:25:50.990Z,24.70
2023-05-10T13:27:52.549Z,24.64
2023-05-10T13:29:54.165Z,24.58
2023-05-10T13:31:55.884Z,24.51
2023-05-10T13:33:57.449Z,24.47
2023-05-10T13:35:59.058Z,24.44
2023-05-10T13:38:00.966Z,24.43
2023-05-10T13:40:02.876Z,24.48
2023-05-10T13:42:05.144Z,24.46
2023-05-10T13:44:06.771Z,24.44
2023-05-10T13:46:08.429Z,24.41
2023-05-10T13:48:10.162Z,24.35
2023-05-10T13:50:11.898Z,24.34
2023-05-10T13:52:13.522Z,24.32
2023-05-10T13:54:15.117Z,24.35
2023-05-10T13:56:16.853Z,24.35
2023-05-10T13:58:18.610Z,24.34
2023-05-10T14:00:20.603Z,24.39
2023-05-10T14:02:22.261Z,24.40
2023-05-10T14:04:23.891Z,24.40
2023-05-10T14:06:25.471Z,24.39
2023-05-10T14:08:28.009Z,24.41
2023-05-10T14:10:29.674Z,24.42
2023-05-10T14:12:31.496Z,24.32
2023-05-10T14:14:33.186Z,24.26
2023-05-10T14:16:34.755Z,24.27
2023-05-10T14:18:36.547Z,24.26
2023-05-10T14:20:38.201Z,24.21
2023-05-10T14:22:39.771Z,24.22
2023-05-10T14:24:41.630Z,24.21
2023-05-10T14:26:43.230Z,24.19
2023-05-10T14:28:44.805Z,24.16
2023-05-10T14:30:47.176Z,24.13
2023-05-10T14:32:48.752Z,24.13
2023-05-10T14:34:50.470Z,24.10
2023-05-10T14:36:52.042Z,24.08
2023-05-10T14:38:53.599Z,24.07
2023-05-10T14:40:55.452Z,24.06
2023-05-10T14:42:57.454Z,24.06
2023-05-10T14:44:59.026Z,24.04
2023-05-10T14:47:00.746Z,24.01
2023-05-10T14:49:02.306Z,24.03
2023-05-10T14:51:04.603Z,24.02
2023-05-10T14:53:06.329Z,23.97
2023-05-10T14:55:08.419Z,23.97
2023-05-10T14:57:09.980Z,23.95
2023-05-10T14:59:11.599Z,23.97
2023-05-10T15:01:13.685Z,23.91
2023-05-10T15:03:16.410Z,23.78
2023-05-10T15:05:18.965Z,23.74
2023-05-10T15:07:20.909Z,23.73
2023-05-10T15:09:22.418Z,23.74
2023-05-10T15:11:23.943Z,23.78
2023-05-10T15:13:25.907Z,23.77
2023-05-10T15:15:27.549Z,23.73
2023-05-10T15:17:29.189Z,23.71
2023-05-10T15:19:30.774Z,23.73
2023-05-10T15:21:38.548Z,23.68
2023-05-10T15:23:40.294Z,23.69
2023-05-10T15:25:41.913Z,23.65
2023-05-10T15:27:44.656Z,23.62
2023-05-10T15:29:46.491Z,23.64
2023-05-10T15:31:49.239Z,23.68
2023-05-10T15:33:50.789Z,23.68
2023-05-10T15:35:54.490Z,23.63
2023-05-10T15:37:56.079Z,23.62
2023-05-10T15:40:04.322Z,23.60
2023-05-10T15:42:06.290Z,23.52
2023-05-10T15:44:07.927Z,23.47
2023-05-10T15:46:09.523Z,23.44
2023-05-10T15:48:11.189Z,23.46
2023-05-10T15:50:12.952Z,23.40
2023-05-10T15:52:14.612Z,23.35
2023-05-10T15:54:16.259Z,23.35
2023-05-10T15:56:18.050Z,23.33
2023-05-10T15:58:19.650Z,23.33
2023-05-10T16:00:21.440Z,23.34
2023-05-10T16:02:23.527Z,23.35
2023-05-10T16:04:25.849Z,23.31
2023-05-10T16:06:27.421Z,23.31
2023-05-10T16:08:33.710Z,23.35
2023-05-10T16:10:35.408Z,23.39
2023-05-10T16:12:37.098Z,23.39
2023-05-10T16:14:38.723Z,23.44
2023-05-10T16:16:41.302Z,23.47
2023-05-10T16:18:43.112Z,23.46
2023-05-10T16:20:45.008Z,23.45
2023-05-10T16:22:46.729Z,23.41
2023-05-10T16:24:48.364Z,23.37
2023-05-10T16:26:49.991Z,23.34
2023-05-10T16:28:52.236Z,23.35
2023-05-10T16:30:53.972Z,23.39
2023-05-10T16:32:56.467Z,23.43
2023-05-10T16:34:58.933Z,23.47
2023-05-10T16:37:00.683Z,23.46
2023-05-10T16:39:02.735Z,23.51
2023-05-10T16:41:07.428Z,23.41
2023-05-10T16:43:08.985Z,23.40
2023-05-10T16:45:11.294Z,23.35
2023-05-10T16:47:12.938Z,23.33
2023-05-10T16:49:14.635Z,23.29
2023-05-10T16:51:16.322Z,23.28
2023-05-10T16:53:18.123Z,23.22
2023-05-10T16:55:19.865Z,23.22
2023-05-10T16:57:21.650Z,23.19
2023-05-10T16:59:23.248Z,23.22
2023-05-10T17:01:26.958Z,23.24
2023-05-10T17:03:28.851Z,23.30
2023-05-10T17:05:30.545Z,23.30
2023-05-10T17:07:32.063Z,23.24
2023-05-10T17:09:33.549Z,23.25
2023-05-10T17:11:35.365Z,23.25
2023-05-10T17:13:38.774Z,23.31
2023-05-10T17:15:40.472Z,23.33
2023-05-10T17:17:42.184Z,23.37
2023-05-10T17:19:46.986Z,23.42
2023-05-10T17:21:48.609Z,23.44
2023-05-10T17:23:50.265Z,23.46
2023-05-10T17:25:51.871Z,23.48
2023-05-10T17:27:53.386Z,23.46
2023-05-10T17:29:58.258Z,23.43
2023-05-10T17:32:00.198Z,23.44
2023-05-10T17:34:04.028Z,23.41
2023-05-10T17:36:07.516Z,23.44
2023-05-10T17:38:09.138Z,23.41
2023-05-10T17:40:11.499Z,23.37
2023-05-10T17:42:13.774Z,23.36
2023-05-10T17:44:15.632Z,23.27
2023-05-10T17:46:17.973Z,23.20
2023-05-10T17:48:19.734Z,23.15
2023-05-10T17:50:21.349Z,23.12
2023-05-10T17:52:23.053Z,23.13
2023-05-10T17:54:24.605Z,23.16
2023-05-10T17:56:26.266Z,23.12
2023-05-10T17:58:28.226Z,23.09
2023-05-10T18:00:30.055Z,23.09
2023-05-10T18:02:31.823Z,23.13
2023-05-10T18:04:33.593Z,23.14
2023-05-10T18:06:38.319Z,23.15
2023-05-10T18:08:39.962Z,23.17
2023-05-10T18:10:41.817Z,23.17
2023-05-10T18:12:43.599Z,23.15
2023-05-10T18:14:45.168Z,23.14
2023-05-10T18:16:47.230Z,23.13
2023-05-10T18:18:49.020Z,23.12
2023-05-10T18:20:56.438Z,23.14
2023-05-10T18:22:58.506Z,23.08
2023-05-10T18:25:00.250Z,23.08
2023-05-10T18:27:02.010Z,23.08
2023-05-10T18:29:03.834Z,23.08
2023-05-10T18:31:05.518Z,23.11
2023-05-10T18:33:07.592Z,23.11
2023-05-10T18:35:09.597Z,23.09
2023-05-10T18:37:11.389Z,23.14
2023-05-10T18:39:13.421Z,23.18
2023-05-10T18:41:15.142Z,23.16
2023-05-10T18:43:16.784Z,23.08
2023-05-10T18:45:18.548Z,23.04
2023-05-10T18:47:20.528Z,22.99
2023-05-10T18:49:22.170Z,22.99
2023-05-10T18:51:24.413Z,22.98
2023-05-10T18:53:26.448Z,23.00
2023-05-10T18:55:28.462Z,23.02
2023-05-10T18:57:30.093Z,23.01
2023-05-10T18:59:32.073Z,22.99
2023-05-10T19:01:33.673Z,22.98
2023-05-10T19:03:35.895Z,23.00
2023-05-10T19:05:37.398Z,23.00
2023-05-10T19:07:40.520Z,23.00
2023-05-10T19:09:42.084Z,23.00
2023-05-10T19:11:43.686Z,22.99
2023-05-10T19:13:46.044Z,22.98
2023-05-10T19:15:53.131Z,22.95
2023-05-10T19:17:55.874Z,22.91
2023-05-10T19:19:59.517Z,22.90
2023-05-10T19:22:01.692Z,22.92
2023-05-10T19:24:03.557Z,22.93
2023-05-10T19:26:05.681Z,22.95
2023-05-10T19:28:08.946Z,22.97
2023-05-10T19:30:11.509Z,22.96
2023-05-10T19:32:13.360Z,22.99
2023-05-10T19:34:15.296Z,23.03
2023-05-10T19:36:17.186Z,23.07
2023-05-10T19:38:25.336Z,23.12
2023-05-10T19:40:27.440Z,23.12
2023-05-10T19:42:29.192Z,23.20
2023-05-10T19:44:31.703Z,23.32
2023-05-10T19:46:33.564Z,23.39
2023-05-10T19:48:35.986Z,23.47
2023-05-10T19:50:38.267Z,23.52
2023-05-10T19:52:40.325Z,23.59
2023-05-10T19:54:42.811Z,23.62
2023-05-10T19:56:44.368Z,23.66
2023-05-10T19:58:46.078Z,23.71
2023-05-10T20:00:47.733Z,23.73
2023-05-10T20:02:49.488Z,23.75
2023-05-10T20:04:51.280Z,23.80
2023-05-10T20:06:52.997Z,23.82
2023-05-10T20:08:54.720Z,23.83
2023-05-10T20:10:58.884Z,23.85
2023-05-10T20:13:00.610Z,23.88
2023-05-10T20:15:02.765Z,23.90
2023-05-10T20:17:04.880Z,23.94
2023-05-10T20:19:06.875Z,23.96
2023-05-10T20:21:08.510Z,24.01
2023-05-10T20:23:10.163Z,24.02
2023-05-10T20:25:11.979Z,24.05
2023-05-10T20:27:13.829Z,24.07
2023-05-10T20:29:15.485Z,24.10
2023-05-10T20:31:17.411Z,24.11
2023-05-10T20:33:19.232Z,24.12
2023-05-10T20:35:20.881Z,24.15
2023-05-10T20:37:23.405Z,24.16
2023-05-10T20:39:24.987Z,24.18
2023-05-10T20:41:26.621Z,24.20
2023-05-10T20:43:29.142Z,24.23
2023-05-10T20:45:30.817Z,24.25
2023-05-10T20:47:32.572Z,24.28
2023-05-10T20:49:35.466Z,24.30
2023-05-10T20:51:37.130Z,24.31
2023-05-10T20:53:38.638Z,24.32
2023-05-10T20:55:40.426Z,24.34
2023-05-10T20:57:42.098Z,24.36
2023-05-10T20:59:43.816Z,24.37
2023-05-10T21:01:45.695Z,24.38
2023-05-10T21:03:47.259Z,24.39
2023-05-10T21:05:48.856Z,24.42
2023-05-10T21:07:54.070Z,24.43
2023-05-10T21:09:55.632Z,24.45
2023-05-10T21:11:57.770Z,24.47
2023-05-10T21:13:59.290Z,24.50
2023-05-10T21:16:01.180Z,24.51
2023-05-10T21:18:02.855Z,24.53
2023-05-10T21:20:05.229Z,24.54
2023-05-10T21:22:07.618Z,24.55
2023-05-10T21:24:09.280Z,24.55
2023-05-10T21:26:10.817Z,24.56
2023-05-10T21:28:12.602Z,24.58
2023-05-10T21:30:14.610Z,24.58
2023-05-10T21:32:16.484Z,24.61
2023-05-10T21:34:18.084Z,24.63
2023-05-10T21:36:19.850Z,24.65
2023-05-10T21:38:21.491Z,24.67
2023-05-10T21:40:23.938Z,24.69
2023-05-10T21:42:25.566Z,24.69
2023-05-10T21:44:27.143Z,24.71
2023-05-10T21:46:28.748Z,24.72
2023-05-10T21:48:30.856Z,24.73
2023-05-10T21:50:32.576Z,24.73
2023-05-10T21:52:34.171Z,24.74
2023-05-10T21:54:37.252Z,24.75
2023-05-10T21:56:38.825Z,24.76
2023-05-10T21:58:40.831Z,24.78
2023-05-10T22:00:42.460Z,24.79
2023-05-10T22:02:44.182Z,24.81
2023-05-10T22:04:45.814Z,24.82
2023-05-10T22:06:47.854Z,24.84
2023-05-10T22:08:49.412Z,24.85
2023-05-10T22:10:51.963Z,24.87
2023-05-10T22:12:53.532Z,24.88
2023-05-10T22:15:09.413Z,24.88
2023-05-10T22:17:12.291Z,24.88
2023-05-10T22:19:13.944Z,24.88
2023-05-10T22:21:15.553Z,24.89
2023-05-10T22:23:17.087Z,24.91
2023-05-10T22:25:18.636Z,24.92
2023-05-10T22:27:20.383Z,24.94
2023-05-10T22:29:22.750Z,24.95
2023-05-10T22:31:24.474Z,24.97
2023-05-10T22:33:26.121Z,24.98
2023-05-10T22:35:27.763Z,24.98
2023-05-10T22:37:29.434Z,25.00
2023-05-10T22:39:31.078Z,25.00
2023-05-10T22:41:34.047Z,25.01
2023-05-10T22:43:35.673Z,25.01
2023-05-10T22:45:37.406Z,25.01
2023-05-10T22:47:39.419Z,25.03
2023-05-10T22:49:41.028Z,25.04
2023-05-10T22:51:42.571Z,25.04
2023-05-10T22:53:44.158Z,25.05
2023-05-10T22:55:47.068Z,25.06
2023-05-10T22:57:48.682Z,25.08
2023-05-10T22:59:50.214Z,25.09
2023-05-10T23:01:51.794Z,25.10
2023-05-10T23:03:53.461Z,25.07
2023-05-10T23:05:54.968Z,25.09
2023-05-10T23:07:56.627Z,25.11
2023-05-10T23:09:58.264Z,25.11
2023-05-10T23:11:59.909Z,25.11
2023-05-10T23:14:01.655Z,25.11
2023-05-10T23:16:06.768Z,25.15
2023-05-10T23:18:09.685Z,25.15
2023-05-10T23:20:12.197Z,25.15
2023-05-10T23:22:13.798Z,25.17
2023-05-10T23:24:15.426Z,25.18
2023-05-10T23:26:16.963Z,25.20
2023-05-10T23:28:18.694Z,25.20
2023-05-10T23:30:20.385Z,25.19
2023-05-10T23:32:24.815Z,25.20
2023-05-10T23:34:26.422Z,25.20
2023-05-10T23:36:28.033Z,25.20
2023-05-10T23:38:29.619Z,25.20
2023-05-10T23:40:31.285Z,25.21
2023-05-10T23:42:32.859Z,25.23
2023-05-10T23:44:34.693Z,25.24
2023-05-10T23:46:36.220Z,25.25
2023-05-10T23:48:37.904Z,25.26
2023-05-10T23:50:44.505Z,25.26
2023-05-10T23:52:46.064Z,25.26
2023-05-10T23:54:47.704Z,25.27
2023-05-10T23:56:51.489Z,25.26
2023-05-10T23:58:53.171Z,25.27
